x

Corpus Christi, Tx - 60nm Sse Of Corpus Christi, Tx (42020) Wave Buoy

11:50 - Sun 20th May 2018 All times are CDT. -5 hours from GMT.

  • Sig Wave height 5.2ft
  • Swell Direction
  • Peak Period 7s
  • Average Period 5s
  • Wind
    18mph, 22mph gusts
  • Sea Temp 80°f
  • Ar Temp 80°f
  • Sea Pressure 1014.2mb
  • Corpus Christi, Tx - 60nm Sse Of Corpus Christi, Tx
  • Corpus Christi, Tx - 60nm Sse Of Corpus Christi, Tx

More Historic Weather Station data

Upgrade to MSW Pro to gain access to the past 30 days of data for over 8000 Wavebouys and Weather Stations around the globe.

Join

Comparision Forecast

View Surf forecast
   
Dom 05/20 11:50 5ft 7s 5s 18 22 mph 1014.2mb 80f 80f
11:40  -   -   -  18 22 mph 1014.2mb 80f 80f
11:30  -   -   -  20 25 mph 1014.1mb 80f 80f
11:20  -   -   -  20 25 mph 1014.3mb 80f 80f
11:10  -   -   -  22 27 mph 1014.2mb 80f 80f
11:00  -   -   -  20 27 mph 1014mb 80f 80f
10:50 5.5ft 7s 5s 22 29 mph 1014mb 80f 80f
10:40  -   -   -  22 29 mph 1013.9mb 80f 80f
10:30  -   -   -  25 31 mph 1013.7mb 80f 80f
10:20  -   -   -  22 27 mph 1013.9mb 80f 80f
10:10  -   -   -  18 22 mph 1014.7mb 80f 80f
10:00  -   -   -  16 18 mph 1015.1mb 80f 80f
9:50 5.5ft 7s 5s 16 18 mph 1015.3mb 80f 80f
9:40  -   -   -  16 18 mph 1015.4mb 80f 80f
9:30  -   -   -  13 18 mph 1015.5mb 80f 80f
9:20  -   -   -  16 20 mph 1015.4mb 80f 80f
9:10  -   -   -  16 20 mph 1015.2mb 80f 80f
9:00  -   -   -  18 22 mph 1015.1mb 80f 80f
8:50 5ft 7s 5s 18 22 mph 1014.9mb 80f 80f
8:40 5ft  -  5s 16 20 mph 1014.6mb 80f 80f
8:30  -   -   -  18 22 mph 1014.5mb 80f 80f
8:20  -   -   -  18 22 mph 1014.4mb 80f 80f
8:10  -   -   -  16 20 mph 1014.4mb 80f 80f
8:00  -   -   -  16 20 mph 1014.1mb 80f 80f
7:50 5ft 7s 5s 16 18 mph 1014mb 80f 80f
7:40  -   -   -  16 18 mph 1014mb 80f 80f
7:30  -   -   -  16 18 mph 1013.9mb 80f 80f
7:20  -   -   -  13 18 mph 1013.9mb 80f 80f
7:10  -   -   -  18 20 mph 1013.6mb 80f 80f
7:00  -   -   -  18 22 mph 1013.4mb 80f 80f
6:50 5.5ft 7s 5s 18 22 mph 1013.2mb 80f 80f
6:40  -   -   -  18 22 mph 1013.1mb 80f 80f
6:30  -   -   -  16 20 mph 1013mb 80f 80f
6:20  -   -   -  18 22 mph 1013mb 80f 80f
6:10  -   -   -  18 22 mph 1013mb 80f 80f
6:00  -   -   -  18 20 mph 1012.9mb 80f 80f
5:50 5.5ft 7s 5s 18 22 mph 1012.6mb 80f 80f
5:40 5.5ft  -  5s 18 22 mph 1012.6mb 80f 80f
5:30  -   -   -  20 25 mph 1012.3mb 80f 80f
5:20  -   -   -  20 25 mph 1012.3mb 80f 80f
5:10  -   -   -  18 25 mph 1012.3mb 80f 80f
5:00  -   -   -  20 25 mph 1012.3mb 80f 80f
4:50 5ft 6s 5s 20 25 mph 1011.9mb 80f 80f
4:40  -   -   -  16 20 mph 1012.3mb 80f 80f
4:30  -   -   -  16 22 mph 1012.5mb 80f 80f
4:20  -   -   -  18 22 mph 1012.4mb 80f 80f
4:10  -   -   -  18 22 mph 1012.4mb 80f 80f
4:00  -   -   -  18 20 mph 1012.2mb 80f 80f
3:50 5ft 7s 5s 18 22 mph 1012.2mb 80f 80f
3:40 5ft  -  5s 18 20 mph 1012.1mb 80f 80f
3:30  -   -   -  18 22 mph 1012.2mb 80f 80f
3:20  -   -   -  18 22 mph 1012.4mb 80f 80f
3:10  -   -   -  18 20 mph 1012.3mb 80f 80f
3:00  -   -   -  16 20 mph 1012.3mb 80f 80f
2:50 5ft 7s 5s 18 22 mph 1012.1mb 80f 80f
2:40  -   -   -  18 22 mph 1012.1mb 80f 80f
2:30  -   -   -  16 20 mph 1012.2mb 80f 80f
2:20  -   -   -  18 22 mph 1012.4mb 80f 80f
2:10  -   -   -  18 22 mph 1012.3mb 80f 80f
2:00  -   -   -  18 22 mph 1012.4mb 80f 80f
1:50 5.5ft 7s 5s 18 22 mph 1012.3mb 80f 80f
1:40  -   -   -  18 25 mph 1012.3mb 80f 80f
1:30  -   -   -  18 22 mph 1012.3mb 80f 80f
1:20  -   -   -  18 25 mph 1012.3mb 80f 80f
1:10  -   -   -  18 22 mph 1012.2mb 80f 80f
1:00  -   -   -  18 22 mph 1012.1mb 80f 80f
12:50 6ft 7s 5s 20 27 mph 1012mb 80f 80f
12:40  -   -   -  18 25 mph 1012mb 80f 80f
12:30  -   -   -  18 25 mph 1011.8mb 80f 80f
12:20  -   -   -  20 25 mph 1011.9mb 80f 80f
12:10  -   -   -  20 27 mph 1011.8mb 80f 80f
12:00  -   -   -  18 25 mph 1011.8mb 80f 80f
Sáb 05/19 11:50 5.5ft 7s 5s 18 22 mph 1011.8mb 80f 80f
11:40  -   -   -  20 25 mph 1011.8mb 80f 80f
11:30  -   -   -  20 27 mph 1011.6mb 80f 80f
11:20  -   -   -  20 27 mph 1011.5mb 80f 80f
11:10  -   -   -  20 25 mph 1011.3mb 80f 80f
11:00  -   -   -  20 27 mph 1011.2mb 80f 80f
10:50 5.5ft 7s 5s 20 25 mph 1011.2mb 80f 80f
10:40  -   -   -  20 25 mph 1011.2mb 80f 80f
10:30  -   -   -  18 25 mph 1011.1mb 80f 80f
10:20  -   -   -  20 25 mph 1011mb 80f 80f
10:10  -   -   -  20 25 mph 1011mb 80f 80f
10:00  -   -   -  20 27 mph 1010.9mb 80f 80f
9:50 5ft 7s 5s 20 25 mph 1010.8mb 80f 80f
9:40 5ft  -  5s 20 25 mph 1010.7mb 80f 80f
9:30  -   -   -  20 25 mph 1010.6mb 80f 80f
9:20  -   -   -  20 25 mph 1010.5mb 80f 80f
9:10  -   -   -  20 25 mph 1010.4mb 80f 80f
9:00  -   -   -  20 25 mph 1010.2mb 80f 80f
8:50 5ft 7s 5s 20 27 mph 1010.1mb 80f 80f
8:40 5ft  -  5s 20 25 mph 1010.1mb 80f 80f
8:30  -   -   -  20 25 mph 1010.1mb 80f 80f
8:20  -   -   -  18 22 mph 1010mb 80f 80f
8:10  -   -   -  18 25 mph 1009.9mb 80f 80f
8:00  -   -   -  20 22 mph 1009.7mb 80f 80f
7:50 5ft 7s 5s 18 22 mph 1009.6mb 80f 80f
7:40 5ft  -  5s 18 22 mph 1009.6mb 80f 80f
7:30  -   -   -  18 22 mph 1009.5mb 80f 80f
7:20  -   -   -  20 22 mph 1009.6mb 80f 80f
7:10  -   -   -  18 22 mph 1009.6mb 80f 80f
7:00  -   -   -  18 22 mph 1009.7mb 80f 80f
6:50 5ft 7s 5s 18 20 mph 1009.8mb 80f 80f
6:40  -   -   -  18 22 mph 1009.7mb 80f 80f
6:30  -   -   -  18 22 mph 1009.8mb 80f 80f
6:20  -   -   -  18 22 mph 1009.8mb 80f 80f
6:10  -   -   -  18 20 mph 1009.9mb 80f 80f
6:00  -   -   -  18 20 mph 1009.9mb 80f 80f
5:50 5ft 7s 5s 18 22 mph 1009.9mb 80f 80f
5:40 5ft  -  5s 18 22 mph 1010mb 80f 80f
5:30  -   -   -  18 22 mph 1009.9mb 80f 80f
5:20  -   -   -  18 22 mph 1010mb 80f 80f
5:10  -   -   -  18 22 mph 1010.1mb 80f 80f
5:00  -   -   -  18 22 mph 1010mb 80f 80f
4:50 5ft 7s 5s 18 22 mph 1010.1mb 80f 80f
4:40  -   -   -  20 22 mph 1010.2mb 80f 80f
4:30  -   -   -  20 25 mph 1010.2mb 80f 80f
4:20  -   -   -  18 25 mph 1010.4mb 80f 80f
4:10  -   -   -  20 25 mph 1010.4mb 80f 80f
4:00  -   -   -  18 22 mph 1010.5mb 80f 80f
3:50 5.5ft 7s 5s 20 25 mph 1010.6mb 80f 80f
3:40 5.5ft  -  5s 20 25 mph 1010.6mb 80f 80f
3:30  -   -   -  20 25 mph 1010.7mb 80f 80f
3:20  -   -   -  20 25 mph 1010.7mb 80f 80f
3:10  -   -   -  20 22 mph 1010.7mb 80f 80f
3:00  -   -   -  18 25 mph 1010.9mb 80f 80f
2:50 5.5ft 7s 5s 20 22 mph 1010.8mb 80f 80f
2:40 5.5ft  -  5s 20 25 mph 1010.9mb 80f 80f
2:30  -   -   -  18 22 mph 1011mb 80f 80f
2:20  -   -   -  18 22 mph 1011mb 80f 80f
2:10  -   -   -  18 22 mph 1011.1mb 80f 80f
2:00  -   -   -  18 22 mph 1011.2mb 80f 80f
1:50 5ft 7s 5s 18 22 mph 1011.2mb 80f 80f
1:40  -   -   -  18 22 mph 1011.4mb 80f 80f
1:30  -   -   -  18 22 mph 1011.4mb 80f 80f
1:20  -   -   -  20 25 mph 1011.5mb 80f 80f
1:10  -   -   -  20 25 mph 1011.5mb 80f 80f
1:00  -   -   -  20 25 mph 1011.6mb 80f 80f
12:50 5ft 7s 5s 20 25 mph 1011.5mb 80f 80f
12:40  -   -   -  20 25 mph 1011.5mb 80f 80f
12:30  -   -   -  20 25 mph 1011.6mb 80f 80f
12:20  -   -   -  18 25 mph 1011.8mb 80f 80f
12:10  -   -   -  18 25 mph 1011.7mb 80f 80f
12:00  -   -   -  20 25 mph 1011.6mb 80f 80f
11:50 5.5ft 6s 5s 20 25 mph 1011.7mb 80f 80f
11:40 5.5ft  -  5s 20 22 mph 1011.7mb 80f 80f
11:30  -   -   -  18 22 mph 1011.7mb - 80f
11:20  -   -   -  18 22 mph 1011.8mb 80f 80f
11:10  -   -   -  18 22 mph 1011.7mb 80f 80f
11:00  -   -   -  20 27 mph 1011.7mb 80f 80f
10:50 5.5ft 6s 5s 20 25 mph 1011.6mb 80f 80f
10:40 5.5ft  -  5s 18 25 mph 1011.6mb 80f 80f
10:30  -   -   -  20 22 mph 1011.5mb 80f 80f
10:20  -   -   -  20 22 mph 1011.5mb 80f 80f
10:10  -   -   -  18 25 mph 1011.5mb 80f 80f
10:00  -   -   -  18 25 mph 1011.5mb 80f 80f
9:50 5.5ft 6s 5s 18 22 mph 1011.4mb 80f 80f
9:40 5.5ft  -  5s 18 22 mph 1011.5mb 80f 80f
9:30  -   -   -  18 25 mph 1011.4mb 80f 80f
9:20  -   -   -  18 25 mph 1011.4mb 80f 80f
9:10  -   -   -  20 25 mph 1011.3mb 80f 80f
9:00  -   -   -  20 25 mph 1011.3mb 80f 80f
8:50 5.5ft 6s 5s 18 22 mph 1011.1mb - 80f
8:40  -   -   -  18 22 mph 1011mb 79f 80f
8:30  -   -   -  20 25 mph 1010.9mb 79f 80f
8:20  -   -   -  18 25 mph 1010.8mb 79f 80f
8:10  -   -   -  20 25 mph 1010.7mb 79f 80f
8:00  -   -   -  22 27 mph 1010.8mb 79f 80f
7:50 5.5ft 6s 5s 22 27 mph 1010.6mb 79f 80f
7:40  -   -   -  22 29 mph 1010.5mb 79f 80f
7:30  -   -   -  22 29 mph 1010.6mb 79f 80f
7:20  -   -   -  22 29 mph 1010.4mb 79f 80f
7:10  -   -   -  22 27 mph 1010.2mb 79f 80f
7:00  -   -   -  22 27 mph 1010.1mb 79f 79f
6:50 5ft 6s 5s 22 29 mph 1010mb 79f 79f
6:40  -   -   -  22 29 mph 1009.9mb 79f 79f
6:30  -   -   -  22 27 mph 1009.9mb 79f 79f
6:20  -   -   -  22 27 mph 1009.8mb 79f 80f
6:10  -   -   -  22 29 mph 1009.6mb 79f 79f
6:00  -   -   -  22 27 mph 1009.6mb 79f 79f
5:50 5ft 5s 5s 22 27 mph 1009.6mb 79f 79f
5:40 5ft  -  5s 22 29 mph 1009.4mb 79f 79f
5:30  -   -   -  22 27 mph 1009.3mb 79f 79f
5:20  -   -   -  22 27 mph 1009.3mb 79f 79f
5:10  -   -   -  22 29 mph 1009.2mb 79f 79f
5:00  -   -   -  22 29 mph 1009.1mb - 79f
4:50 5ft 6s 5s 22 27 mph 1009.1mb 79f 79f
4:40 5ft  -  5s 22 27 mph 1009mb 79f 79f
4:30  -   -   -  22 29 mph 1009mb 79f 79f
4:20  -   -   -  22 29 mph 1009mb 79f 79f
4:10  -   -   -  22 27 mph 1009.1mb 79f 80f
4:00  -   -   -  22 27 mph 1009.2mb 79f 80f
3:50 5ft 6s 5s 22 27 mph 1009.3mb 79f 79f
3:40 5ft  -  5s 22 27 mph 1009.3mb 79f 79f
3:30  -   -   -  22 27 mph 1009.4mb 79f 79f
3:20  -   -   -  22 29 mph 1009.6mb 79f 79f
3:10  -   -   -  22 27 mph 1009.6mb 79f 80f
3:00  -   -   -  22 27 mph 1009.8mb 79f 79f
2:50 4.5ft 5s 5s 22 27 mph 1009.9mb 79f 80f
2:40  -   -   -  20 25 mph 1009.9mb 79f 79f
2:30  -   -   -  20 25 mph 1009.9mb 79f 80f
2:20  -   -   -  20 25 mph 1010.1mb 79f 80f
2:10  -   -   -  20 27 mph 1010mb - 79f
2:00  -   -   -  18 25 mph 1010.2mb 79f 80f
1:50 4.5ft 6s 4s 20 25 mph 1010.1mb 79f 80f
1:40  -   -   -  20 27 mph 1010.3mb 79f 80f
1:30  -   -   -  20 27 mph 1010.4mb 79f 80f
1:20  -   -   -  20 25 mph 1010.4mb 79f 80f
1:10  -   -   -  22 25 mph 1010.4mb 79f 80f
1:00  -   -   -  22 25 mph 1010.6mb 79f 80f
12:50 4.5ft 6s 5s 22 27 mph 1010.4mb 79f 80f
12:40 4.5ft  -  5s 20 25 mph 1010.6mb 79f 80f
12:30  -   -   -  20 25 mph 1010.4mb 79f 80f
12:20  -   -   -  20 25 mph 1010.3mb 79f 80f
12:10  -   -   -  22 25 mph 1010.3mb 79f 80f
12:00  -   -   -  20 25 mph 1010.4mb 80f 80f
Sex 05/18 11:50 5ft 6s 5s 20 25 mph 1010.4mb 79f 80f
11:40  -   -   -  20 25 mph 1010.2mb 80f 80f
11:30  -   -   -  20 25 mph 1010.1mb 80f 80f
11:20  -   -   -  22 27 mph 1009.9mb 80f 80f
11:10  -   -   -  20 27 mph 1010mb 80f 80f
11:00  -   -   -  20 25 mph 1009.9mb 80f 80f
10:50 4.5ft 6s 5s 22 27 mph 1009.7mb 80f 80f
10:40 4.5ft  -  5s 22 27 mph 1009.7mb 80f 80f
10:30  -   -   -  20 27 mph 1009.5mb 80f 80f
10:20  -   -   -  20 25 mph 1009.5mb 80f 80f
10:10  -   -   -  20 27 mph 1009.3mb 80f 80f
10:00  -   -   -  20 25 mph 1009.3mb 80f 80f
9:50 4.5ft 6s 5s 20 27 mph 1009.2mb 80f 80f
9:40 4.5ft  -  5s 20 25 mph 1009.2mb 80f 80f
9:30  -   -   -  20 27 mph 1009.1mb 80f 80f
9:20  -   -   -  20 27 mph 1009mb 80f 80f
9:10  -   -   -  22 25 mph 1009mb 80f 80f
9:00  -   -   -  20 25 mph 1008.9mb 80f 80f
8:50 4.5ft 6s 5s 20 25 mph 1008.9mb 80f 80f
8:40  -   -   -  20 25 mph 1008.9mb 80f 80f
8:30  -   -   -  20 27 mph 1008.9mb 80f 80f
8:20  -   -   -  20 25 mph 1008.7mb 80f 80f
8:10  -   -   -  20 22 mph 1008.7mb 80f -
8:00  -   -   -  18 25 mph 1008.6mb 80f 80f
7:50 4ft 6s 4s 18 22 mph 1008.5mb 80f 80f
7:40  -   -   -  20 25 mph 1008.5mb 80f 80f
7:30  -   -   -  20 25 mph 1008.5mb 80f 80f
7:20  -   -   -  20 25 mph 1008.5mb 80f 80f
7:10  -   -   -  20 25 mph 1008.5mb 80f 80f
7:00  -   -   -  20 25 mph 1008.5mb 80f 80f
6:50 4.5ft 6s 5s 20 22 mph 1008.5mb 80f 80f
6:40  -   -   -  20 25 mph 1008.5mb 80f 80f
6:30  -   -   -  20 25 mph 1008.6mb 80f 80f
6:20  -   -   -  18 22 mph 1008.6mb 80f 80f
6:10  -   -   -  20 25 mph 1008.5mb 80f 80f
6:00  -   -   -  18 22 mph 1008.5mb 80f 80f
5:50 4.5ft 6s 5s 18 22 mph 1008.7mb 80f 80f
5:40 4.5ft  -  5s 18 22 mph 1008.7mb 80f 80f
5:30  -   -   -  18 22 mph 1008.8mb 80f 80f
5:20  -   -   -  18 22 mph 1008.7mb 80f 80f
5:10  -   -   -  18 22 mph 1008.8mb 80f 80f
5:00  -   -   -  18 22 mph 1008.9mb 80f 80f
4:50 4.5ft 6s 5s 18 20 mph 1008.9mb 80f 80f
4:40  -   -   -  18 20 mph 1008.9mb 80f 80f
4:30  -   -   -  18 22 mph 1009.1mb 80f 80f
4:20  -   -   -  18 22 mph 1009.3mb 80f 80f
4:10  -   -   -  18 22 mph 1009.4mb 80f 80f
4:00  -   -   -  18 22 mph 1009.4mb 80f 80f
3:50 4.5ft 6s 5s 18 20 mph 1009.4mb 80f 80f
3:40  -   -   -  18 22 mph 1009.5mb 80f 80f
3:30  -   -   -  18 22 mph 1009.5mb 80f 80f
3:20  -   -   -  18 25 mph 1009.5mb 80f 80f
3:10  -   -   -  18 22 mph 1009.5mb 80f 80f
3:00  -   -   -  18 25 mph 1009.6mb 80f 80f
2:50 4.5ft 6s 5s 18 22 mph 1009.7mb 80f 80f
2:40  -   -   -  18 22 mph 1009.9mb 80f 80f
2:30  -   -   -  18 22 mph 1010mb 80f 80f
2:20  -   -   -  18 22 mph 1010.1mb 80f 80f
2:10  -   -   -  18 22 mph 1010.1mb 80f 80f
2:00  -   -   -  18 25 mph 1010.1mb 80f 80f
1:50 4.5ft 6s 4s 18 22 mph 1010.1mb 80f 80f
1:40 4.5ft  -  4s 20 22 mph 1010.1mb 80f 80f
1:30  -   -   -  20 25 mph 1010.3mb 80f 80f
1:20  -   -   -  20 25 mph 1010.3mb 80f 80f
1:10  -   -   -  18 22 mph 1010.4mb 80f 80f
1:00  -   -   -  18 22 mph 1010.5mb 80f 80f
12:50 4.5ft 6s 4s 20 25 mph 1010.5mb 79f 80f
12:40 4.5ft  -  4s 20 25 mph 1010.4mb 79f 80f
12:30  -   -   -  20 25 mph 1010.3mb 79f 80f
12:20  -   -   -  20 25 mph 1010.2mb 79f 80f
12:10  -   -   -  20 25 mph 1010.3mb 79f 80f
12:00  -   -   -  20 25 mph 1010.4mb 79f 80f
11:50 4.5ft 6s 4s 20 25 mph 1010.6mb 79f 80f
11:40  -   -   -  20 25 mph 1010.7mb 79f 80f
11:30  -   -   -  18 22 mph 1011mb 79f 80f
11:20  -   -   -  20 22 mph 1010.9mb 79f 80f
11:10  -   -   -  20 25 mph 1010.9mb 79f 80f
11:00  -   -   -  20 25 mph 1010.9mb 79f 80f
10:50 4ft 6s 4s 20 25 mph 1011mb 79f 80f
10:40  -   -   -  20 25 mph 1010.9mb 79f 80f
10:30  -   -   -  20 25 mph 1010.9mb 79f 80f
10:20  -   -   -  20 27 mph 1010.8mb 79f 80f
10:10  -   -   -  22 25 mph 1010.8mb 79f 80f
10:00  -   -   -  22 27 mph 1010.7mb 79f 80f
9:50 4.5ft 5s  -  22 27 mph 1010.9mb 79f 80f
9:40 4.5ft  -  4s 22 27 mph 1010.9mb 79f 80f
9:30  -   -   -  20 27 mph 1010.9mb 79f 80f
9:20  -   -   -  20 25 mph 1011mb 79f 80f
9:10  -   -   -  20 25 mph 1011mb 79f 80f
9:00  -   -   -  20 25 mph 1011mb 79f 80f
8:50 4.5ft 5s 4s 20 25 mph 1011mb 79f 80f
8:40  -   -   -  20 25 mph 1011mb 79f 80f
8:30  -   -   -  22 27 mph 1010.8mb 79f 80f
8:20  -   -   -  22 25 mph 1010.7mb 79f 79f
8:10  -   -   -  20 25 mph 1010.7mb - 80f
8:00  -   -   -  20 25 mph 1010.5mb 79f 79f
7:50 4ft 5s  -  20 25 mph 1010.3mb 79f 79f
7:40  -   -   -  20 25 mph 1010.2mb 79f 79f
7:30  -   -   -  20 27 mph 1010.2mb 79f 79f
7:20  -   -   -  22 27 mph 1010.1mb 79f 79f
7:10  -   -   -  20 27 mph 1010.1mb 79f 79f
7:00  -   -   -  20 25 mph 1010.1mb - 79f
6:50 4ft 5s 4s 20 25 mph 1010.1mb 79f 79f
6:40  -   -   -  20 25 mph 1009.9mb 79f 79f
6:30  -   -   -  20 25 mph 1009.9mb 79f 79f
6:20  -   -   -  20 25 mph 1009.9mb 79f 79f
6:10  -   -   -  20 22 mph 1009.9mb 79f 79f
6:00  -   -   -  20 25 mph 1009.8mb 79f 79f
5:50 4ft 5s  -  20 25 mph 1009.8mb 79f 79f
5:40  -   -   -  20 22 mph 1009.8mb 79f 79f
5:30  -   -   -  20 22 mph 1009.8mb 79f 79f
5:20  -   -   -  20 25 mph 1009.7mb 79f 79f
5:10  -   -   -  18 25 mph 1009.7mb 79f 79f
5:00  -   -   -  20 22 mph 1009.9mb 79f -
4:50 3.5ft 5s  -  20 22 mph 1009.8mb 79f 79f
4:40  -   -   -  18 22 mph 1009.7mb 79f 79f
4:30  -   -   -  20 25 mph 1009.6mb 79f 79f
4:20  -   -   -  20 25 mph 1009.7mb 79f 79f
4:10  -   -   -  20 22 mph 1009.9mb 79f 79f
4:00  -   -   -  20 25 mph 1009.9mb 79f 79f
3:50 3.5ft 5s 4s 18 25 mph 1010mb 79f 79f
3:40  -   -   -  18 22 mph 1010.1mb 79f 79f
3:30  -   -   -  18 22 mph 1010.1mb 79f 79f
3:20  -   -   -  18 22 mph 1010.2mb 79f 79f
3:10  -   -   -  18 22 mph 1010.3mb 79f 79f
3:00  -   -   -  18 22 mph 1010.3mb 79f 79f
2:50 3.5ft 5s 4s 18 22 mph 1010.3mb 79f 79f
2:40  -   -   -  18 20 mph 1010.4mb 79f -
2:30  -   -   -  18 20 mph 1010.4mb 79f 79f
2:20  -   -   -  18 20 mph 1010.6mb 79f 79f
2:10  -   -   -  18 22 mph 1010.5mb 79f 79f
2:00  -   -   -  18 22 mph 1010.7mb 79f 79f
1:50 3.5ft 5s  -  18 22 mph 1010.7mb 79f 79f
1:40  -   -   -  18 22 mph 1010.7mb 79f 79f
1:30  -   -   -  18 22 mph 1010.8mb 79f 79f
1:20  -   -   -  18 22 mph 1011mb 79f 79f
1:10  -   -   -  18 22 mph 1011mb 79f 79f
1:00  -   -   -  18 20 mph 1011.2mb 79f 79f
12:50 3.5ft 5s  -  18 22 mph 1011.3mb 79f 79f
12:40  -   -   -  18 22 mph 1011.1mb 79f 79f
12:30  -   -   -  16 20 mph 1011.3mb 79f 79f
12:20  -   -   -  18 22 mph 1011.3mb 79f 79f
12:10  -   -   -  18 20 mph 1011.4mb 79f 79f
12:00  -   -   -  18 22 mph 1011.5mb 79f 79f
Qui 05/17 11:50 3ft 5s 4s 18 22 mph 1011.5mb 79f 79f
11:40  -   -   -  18 22 mph 1011.5mb 79f 79f
11:30  -   -   -  18 22 mph 1011.4mb 79f 79f
11:20  -   -   -  18 22 mph 1011.4mb 79f 79f
11:10  -   -   -  18 20 mph 1011.3mb 79f 79f
11:00  -   -   -  18 22 mph 1011.4mb 79f 79f
10:50 3ft 4s 4s 18 22 mph 1011.3mb 79f 79f
10:40  -   -   -  18 22 mph 1011.1mb 79f 79f
10:30  -   -   -  18 22 mph 1011.1mb 79f 79f
10:20  -   -   -  20 22 mph 1011mb 79f 79f
10:10  -   -   -  20 22 mph 1010.8mb 79f 79f
10:00  -   -   -  18 22 mph 1010.8mb 79f 79f
9:50 2.5ft 4s 4s 18 22 mph 1010.7mb 79f 79f
9:40  -   -   -  18 22 mph 1010.7mb 79f 79f
9:30  -   -   -  18 22 mph 1010.7mb 79f 79f
9:20  -   -   -  18 20 mph 1010.7mb 79f 79f
9:10  -   -   -  18 22 mph 1010.5mb 79f 79f
9:00  -   -   -  18 22 mph 1010.4mb 79f 79f
8:50 2.5ft 5s  -  18 20 mph 1010.3mb 79f 79f
8:40  -   -   -  18 20 mph 1010.4mb 79f 79f
8:30  -   -   -  18 20 mph 1010.5mb 79f 79f
8:20  -   -   -  18 20 mph 1010.5mb 79f 79f
8:10  -   -   -  16 20 mph 1010.5mb 79f 79f
8:00  -   -   -  16 20 mph 1010.4mb 79f 79f
7:50 2.5ft 4s 4s 16 20 mph 1010.4mb 79f 79f
7:40  -   -   -  16 20 mph 1010.4mb 79f 79f
7:30  -   -   -  16 20 mph 1010.4mb 79f 79f
7:20  -   -   -  16 20 mph 1010.3mb 79f 79f
7:10  -   -   -  16 20 mph 1010.4mb 79f 79f
7:00  -   -   -  16 20 mph 1010.3mb 79f 79f
6:50 2.5ft 5s 4s 16 20 mph 1010.5mb 79f 79f
6:40 2.5ft  -  4s 16 20 mph 1010.5mb 79f 80f
6:30  -   -   -  16 20 mph 1010.6mb 79f 80f
6:20  -   -   -  16 18 mph 1010.8mb 79f 80f
6:10  -   -   -  16 18 mph 1010.9mb 79f 80f
6:00  -   -   -  16 18 mph 1010.9mb 79f 80f
5:50 2.5ft 5s 4s 16 18 mph 1011mb 79f 80f
5:40  -   -   -  16 18 mph 1011.1mb 79f 80f
5:30  -   -   -  16 18 mph 1011.2mb 79f 80f
5:20  -   -   -  16 18 mph 1011.3mb 79f 80f
5:10  -   -   -  13 16 mph 1011.2mb 79f 80f
4:10  -   -   -  13 16 mph 1011.7mb 79f 79f
2:50 2.5ft 4s 4s 13 16 mph 1012.6mb 79f 79f
2:40  -   -   -  13 16 mph 1012.7mb 79f 79f
2:30  -   -   -  13 16 mph 1012.9mb 79f 80f
2:20  -   -   -  13 16 mph 1012.8mb 79f 79f
2:10  -   -   -  13 18 mph 1012.7mb - 79f
2:00  -   -   -  13 18 mph 1012.8mb 79f 79f
1:50 2.5ft 5s 4s 13 16 mph 1012.9mb 79f 79f
1:40  -   -   -  16 18 mph 1013mb 79f 79f
1:30  -   -   -  13 18 mph 1013.1mb 79f 79f
1:20  -   -   -  13 18 mph 1013.1mb 79f 79f
1:10  -   -   -  13 18 mph 1013.2mb 79f 79f
1:00  -   -   -  13 18 mph 1013.3mb 79f 79f
12:50 2.5ft 4s 4s 13 16 mph 1013.3mb 79f 79f
12:40  -   -   -  13 16 mph 1013.5mb 79f 79f
12:30  -   -   -  13 16 mph 1013.5mb 79f 79f
12:20  -   -   -  13 16 mph 1013.6mb 79f 79f
12:10  -   -   -  13 16 mph 1013.5mb 79f 79f
12:00  -   -   -  13 16 mph 1013.5mb 79f 79f
11:50 2.5ft 4s 4s 13 18 mph 1013.5mb 79f 79f
11:40  -   -   -  13 18 mph 1013.5mb 79f 79f
11:30  -   -   -  13 18 mph 1013.4mb 79f 79f
11:20  -   -   -  13 16 mph 1013.5mb 79f 79f
11:10  -   -   -  13 16 mph 1013.5mb 79f 79f
11:00  -   -   -  13 16 mph 1013.4mb 79f 79f
10:50 2.5ft 4s 4s 13 16 mph 1013.4mb 79f 79f
10:40  -   -   -  13 16 mph 1013.5mb 79f 79f
10:30  -   -   -  11 16 mph 1013.6mb 79f 79f
10:20  -   -   -  13 16 mph 1013.5mb 79f 79f
10:10  -   -   -  11 13 mph 1013.5mb 79f 79f
10:00  -   -   -  11 13 mph 1013.6mb 79f 79f
9:50 2.5ft 5s 4s 13 16 mph 1013.6mb 79f 79f
9:40  -   -   -  13 16 mph 1013.5mb 79f 79f
9:30  -   -   -  13 16 mph 1013.3mb - 79f
9:20  -   -   -  13 16 mph 1013.4mb 79f 79f
9:10  -   -   -  13 16 mph 1013.5mb 79f 79f
9:00  -   -   -  11 16 mph 1013.4mb 79f -
8:50 2.5ft 4s 4s 11 13 mph 1013.5mb 79f 79f
8:40 2.5ft  -  4s 11 13 mph 1013.5mb 79f 78f
8:30  -   -   -  11 13 mph 1013.4mb 79f 78f
8:20  -   -   -  11 13 mph 1013.3mb 79f 78f
8:10  -   -   -  13 16 mph 1013.2mb 79f 78f
8:00  -   -   -  13 16 mph 1013mb 79f 78f
7:50 2.5ft 4s 4s 13 16 mph 1012.8mb 79f 78f
7:40  -   -   -  13 16 mph 1012.7mb 79f 78f
7:30  -   -   -  11 13 mph 1012.6mb 79f 78f
7:20  -   -   -  11 13 mph 1012.6mb 79f 78f
7:10  -   -   -  11 13 mph 1012.6mb 79f 78f
7:00  -   -   -  9 13 mph 1012.6mb 79f 78f
6:50 2.5ft 4s 4s 11 13 mph 1012.6mb 79f 78f
6:40 2.5ft  -  4s 11 13 mph 1012.6mb 79f 78f
6:30  -   -   -  11 13 mph 1012.4mb 79f 78f
6:20  -   -   -  11 13 mph 1012.2mb 79f 78f
6:10  -   -   -  11 11 mph 1012.1mb 79f 78f
6:00  -   -   -  11 13 mph 1012.1mb 79f 78f
5:30  -   -   -  11 13 mph 1011.9mb 79f 78f
5:20  -   -   -  11 13 mph 1011.8mb 79f 78f
5:10  -   -   -  13 16 mph 1011.6mb 79f 78f
5:00  -   -   -  13 16 mph 1011.5mb 79f 78f
4:50 3ft 4s 4s 13 16 mph 1011.5mb 79f 78f
4:40 3ft  -  4s 13 18 mph 1011.5mb 79f 78f
4:30  -   -   -  16 18 mph 1011.4mb 79f 78f
4:20  -   -   -  16 18 mph 1011.4mb 79f 78f
4:10  -   -   -  16 18 mph 1011.5mb 78f 78f
4:00  -   -   -  16 18 mph 1011.5mb 78f 78f
3:50 2.5ft 4s 4s 16 18 mph 1011.5mb 78f 78f
3:40  -   -   -  16 18 mph 1011.5mb 78f 78f
3:30  -   -   -  16 20 mph 1011.5mb 78f 78f
3:20  -   -   -  16 20 mph 1011.5mb 78f 78f
3:10  -   -   -  16 18 mph 1011.6mb 78f 78f
3:00  -   -   -  16 20 mph 1011.6mb 78f 78f
2:50 3ft 4s 4s 16 20 mph 1011.7mb 78f 78f
2:40  -   -   -  16 20 mph 1011.8mb 78f 78f
2:30  -   -   -  16 20 mph 1011.9mb 78f 78f
2:20  -   -   -  16 20 mph 1012.1mb 78f 78f
2:10  -   -   -  16 20 mph 1012.1mb 78f 78f
2:00  -   -   -  18 22 mph 1012.3mb 78f 78f
1:50 2.5ft 4s 4s 16 20 mph 1012.5mb 78f 78f
1:40 2.5ft  -  4s 16 20 mph 1012.7mb 78f 78f
1:30  -   -   -  18 20 mph 1012.9mb 78f 78f
1:20  -   -   -  18 20 mph 1012.8mb 78f 78f
1:10  -   -   -  18 20 mph 1012.8mb 78f 78f
1:00  -   -   -  18 20 mph 1013mb 78f 78f
12:50 2.5ft 4s 4s 18 20 mph 1013.1mb 78f 78f
12:40  -   -   -  18 20 mph 1013.2mb 78f 78f
12:30  -   -   -  18 20 mph 1013.2mb 78f 78f
12:20  -   -   -  16 20 mph 1013.2mb 78f 78f
12:10  -   -   -  18 20 mph 1013.2mb 78f 78f
12:00  -   -   -  18 20 mph 1013.3mb 78f 79f
Qua 05/16 11:50 2.5ft 4s 4s 18 20 mph 1013.3mb 78f 79f
11:40  -   -   -  18 22 mph 1013.2mb 78f 79f
11:30  -   -   -  18 22 mph 1013.3mb 78f 79f
11:20  -   -   -  18 20 mph 1013.1mb 78f 79f
11:10  -   -   -  18 20 mph 1013.1mb 78f 79f
11:00  -   -   -  18 22 mph 1012.9mb 78f 79f
10:50 2.5ft 4s 3s 18 22 mph 1012.9mb 79f 79f
10:40 2.5ft  -  3s 20 22 mph 1012.7mb 79f 79f
10:30  -   -   -  18 22 mph 1012.6mb 79f 79f
10:20  -   -   -  18 22 mph 1012.6mb 79f 79f
10:10  -   -   -  18 22 mph 1012.6mb 79f 79f
10:00  -   -   -  18 20 mph 1012.5mb 79f 79f
9:50 2.5ft 4s 3s 18 22 mph 1012.5mb 79f 79f
9:40  -   -   -  18 20 mph 1012.4mb 79f -
9:30  -   -   -  18 20 mph 1012.3mb 79f 79f
9:20  -   -   -  18 22 mph 1012.1mb 79f 79f
9:10  -   -   -  18 22 mph 1012mb 79f 79f
9:00  -   -   -  18 22 mph 1011.9mb 79f 79f
8:50 2ft 3s 3s 18 20 mph 1011.7mb 79f 79f
8:40  -   -   -  18 22 mph 1011.7mb - 79f
8:30  -   -   -  18 20 mph 1011.6mb 79f 79f
8:20  -   -   -  16 20 mph 1011.5mb 79f 79f
8:10  -   -   -  18 20 mph 1011.5mb 79f 79f
8:00  -   -   -  16 20 mph 1011.4mb 79f -
7:50 1.6ft 4s 3s 16 18 mph 1011.5mb 79f 79f
7:40 1.6ft  -  3s 16 18 mph 1011.5mb 79f 79f
7:30  -   -   -  16 18 mph 1011.5mb 79f 79f
7:20  -   -   -  16 18 mph 1011.6mb 79f 79f
7:10  -   -   -  16 18 mph 1011.6mb 79f 79f
7:00  -   -   -  16 18 mph 1011.6mb 79f -
6:50 1.3ft 4s 3s 16 18 mph 1011.7mb 80f 79f
6:40  -   -   -  16 18 mph 1011.8mb 80f 79f
6:30  -   -   -  13 18 mph 1011.9mb 80f 79f
6:20  -   -   -  13 16 mph 1011.9mb 80f 79f
6:10  -   -   -  13 16 mph 1011.9mb 80f 79f
6:00  -   -   -  13 18 mph 1011.9mb 80f 79f
5:50 1.3ft 4s 4s 13 16 mph 1011.9mb 80f 79f